sensor_id;sensor_type;location;lat;lon;timestamp;temperature;humidity
52531;DHT22;38441;52.894;6.040;2023-12-20T06:12:04;7.20;99.90
52531;DHT22;38441;52.894;6.040;2023-12-20T06:14:30;7.50;99.90
52531;DHT22;38441;52.894;6.040;2023-12-20T06:16:57;7.40;99.90
52531;DHT22;38441;52.894;6.040;2023-12-20T06:19:22;7.90;99.90
52531;DHT22;38441;52.894;6.040;2023-12-20T06:21:48;7.80;99.90
52531;DHT22;38441;52.894;6.040;2023-12-20T06:24:14;7.70;99.90
52531;DHT22;38441;52.894;6.040;2023-12-20T06:26:39;7.30;99.90
52531;DHT22;38441;52.894;6.040;2023-12-20T06:29:05;7.40;99.90
52531;DHT22;38441;52.894;6.040;2023-12-20T06:31:31;7.80;99.90
52531;DHT22;38441;52.894;6.040;2023-12-20T06:33:58;7.40;99.90
52531;DHT22;38441;52.894;6.040;2023-12-20T06:36:25;7.70;99.90
52531;DHT22;38441;52.894;6.040;2023-12-20T06:38:51;7.60;99.90
52531;DHT22;38441;52.894;6.040;2023-12-20T06:41:17;7.70;99.90
52531;DHT22;38441;52.894;6.040;2023-12-20T17:38:51;7.80;99.90
52531;DHT22;38441;52.894;6.040;2023-12-20T17:41:16;7.80;99.90
52531;DHT22;38441;52.894;6.040;2023-12-20T17:46:17;7.90;99.90
52531;DHT22;38441;52.894;6.040;2023-12-20T17:48:43;7.90;99.90
52531;DHT22;38441;52.894;6.040;2023-12-20T17:51:09;7.70;99.90
52531;DHT22;38441;52.894;6.040;2023-12-20T17:53:34;8.00;99.90
52531;DHT22;38441;52.894;6.040;2023-12-20T17:56:00;8.30;99.90
52531;DHT22;38441;52.894;6.040;2023-12-20T17:58:25;7.90;99.90
52531;DHT22;38441;52.894;6.040;2023-12-20T18:00:51;7.90;99.90
52531;DHT22;38441;52.894;6.040;2023-12-20T18:05:50;7.90;99.90
52531;DHT22;38441;52.894;6.040;2023-12-20T18:08:16;8.00;99.90
52531;DHT22;38441;52.894;6.040;2023-12-20T18:10:41;7.90;99.90
52531;DHT22;38441;52.894;6.040;2023-12-20T18:13:07;7.90;99.90
52531;DHT22;38441;52.894;6.040;2023-12-20T18:15:33;8.00;99.90
52531;DHT22;38441;52.894;6.040;2023-12-20T18:17:58;7.90;99.90
52531;DHT22;38441;52.894;6.040;2023-12-20T18:20:24;7.90;99.90
52531;DHT22;38441;52.894;6.040;2023-12-20T18:22:52;7.90;99.90
52531;DHT22;38441;52.894;6.040;2023-12-20T18:25:18;8.00;99.90
52531;DHT22;38441;52.894;6.040;2023-12-20T18:27:44;8.00;99.90
52531;DHT22;38441;52.894;6.040;2023-12-20T18:30:10;8.10;99.90
52531;DHT22;38441;52.894;6.040;2023-12-20T18:32:36;8.00;99.90
52531;DHT22;38441;52.894;6.040;2023-12-20T18:35:02;8.10;99.90
52531;DHT22;38441;52.894;6.040;2023-12-20T18:37:28;8.10;99.90
52531;DHT22;38441;52.894;6.040;2023-12-20T18:39:54;8.10;99.90
52531;DHT22;38441;52.894;6.040;2023-12-20T18:42:20;8.10;99.90
52531;DHT22;38441;52.894;6.040;2023-12-20T18:45:08;8.20;99.90
52531;DHT22;38441;52.894;6.040;2023-12-20T18:47:34;7.90;99.90
52531;DHT22;38441;52.894;6.040;2023-12-20T18:50:00;8.20;99.90
52531;DHT22;38441;52.894;6.040;2023-12-20T18:52:28;8.20;99.90
52531;DHT22;38441;52.894;6.040;2023-12-20T18:54:54;8.20;99.90
52531;DHT22;38441;52.894;6.040;2023-12-20T18:57:19;8.20;99.90
52531;DHT22;38441;52.894;6.040;2023-12-20T18:59:45;8.20;99.90
52531;DHT22;38441;52.894;6.040;2023-12-20T19:02:11;8.20;99.90
52531;DHT22;38441;52.894;6.040;2023-12-20T19:04:38;8.30;99.90
52531;DHT22;38441;52.894;6.040;2023-12-20T19:07:03;8.20;99.90
52531;DHT22;38441;52.894;6.040;2023-12-20T19:09:29;8.20;99.90
52531;DHT22;38441;52.894;6.040;2023-12-20T19:11:55;8.20;99.90
52531;DHT22;38441;52.894;6.040;2023-12-20T19:14:21;8.10;99.90
52531;DHT22;38441;52.894;6.040;2023-12-20T19:16:49;8.40;99.90
52531;DHT22;38441;52.894;6.040;2023-12-20T19:19:16;8.30;99.90
52531;DHT22;38441;52.894;6.040;2023-12-20T19:21:41;8.30;99.90
52531;DHT22;38441;52.894;6.040;2023-12-20T19:24:07;8.40;99.90
52531;DHT22;38441;52.894;6.040;2023-12-20T19:26:33;8.40;99.90
52531;DHT22;38441;52.894;6.040;2023-12-20T19:28:59;8.40;99.90
52531;DHT22;38441;52.894;6.040;2023-12-20T19:31:25;8.50;99.90
52531;DHT22;38441;52.894;6.040;2023-12-20T19:33:50;8.40;99.90
52531;DHT22;38441;52.894;6.040;2023-12-20T19:36:18;8.30;99.90
52531;DHT22;38441;52.894;6.040;2023-12-20T19:38:44;8.40;99.90
52531;DHT22;38441;52.894;6.040;2023-12-20T19:41:10;8.40;99.90
52531;DHT22;38441;52.894;6.040;2023-12-20T19:43:37;8.30;99.90
52531;DHT22;38441;52.894;6.040;2023-12-20T19:46:03;8.40;99.90
52531;DHT22;38441;52.894;6.040;2023-12-20T19:50:54;8.40;99.90
52531;DHT22;38441;52.894;6.040;2023-12-20T19:53:20;8.50;99.90
52531;DHT22;38441;52.894;6.040;2023-12-20T19:55:48;8.30;99.90
52531;DHT22;38441;52.894;6.040;2023-12-20T19:58:15;8.40;99.90
52531;DHT22;38441;52.894;6.040;2023-12-20T20:00:40;8.40;99.90
52531;DHT22;38441;52.894;6.040;2023-12-20T20:03:06;8.40;99.90
52531;DHT22;38441;52.894;6.040;2023-12-20T20:07:57;8.50;99.90
52531;DHT22;38441;52.894;6.040;2023-12-20T20:10:23;8.40;99.90
52531;DHT22;38441;52.894;6.040;2023-12-20T20:12:49;8.50;99.90
52531;DHT22;38441;52.894;6.040;2023-12-20T20:15:14;8.40;99.90
52531;DHT22;38441;52.894;6.040;2023-12-20T20:17:40;8.50;99.90
52531;DHT22;38441;52.894;6.040;2023-12-20T20:20:06;8.50;99.90
52531;DHT22;38441;52.894;6.040;2023-12-20T20:22:32;8.60;99.90
52531;DHT22;38441;52.894;6.040;2023-12-20T20:24:59;8.50;99.90
52531;DHT22;38441;52.894;6.040;2023-12-20T20:27:25;8.60;99.90
52531;DHT22;38441;52.894;6.040;2023-12-20T20:29:51;8.60;99.90
52531;DHT22;38441;52.894;6.040;2023-12-20T20:32:16;8.50;99.90
52531;DHT22;38441;52.894;6.040;2023-12-20T20:34:44;8.60;99.90
52531;DHT22;38441;52.894;6.040;2023-12-20T20:37:09;8.50;99.90
52531;DHT22;38441;52.894;6.040;2023-12-20T20:39:36;8.60;99.90
52531;DHT22;38441;52.894;6.040;2023-12-20T20:42:02;8.60;99.90
52531;DHT22;38441;52.894;6.040;2023-12-20T20:44:28;8.60;99.90
52531;DHT22;38441;52.894;6.040;2023-12-20T20:46:53;8.70;99.90
52531;DHT22;38441;52.894;6.040;2023-12-20T20:49:19;8.60;99.90
52531;DHT22;38441;52.894;6.040;2023-12-20T20:51:45;8.60;99.90
52531;DHT22;38441;52.894;6.040;2023-12-20T20:54:11;8.60;99.90
52531;DHT22;38441;52.894;6.040;2023-12-20T20:56:37;8.80;99.90
52531;DHT22;38441;52.894;6.040;2023-12-20T20:59:02;8.80;99.90
52531;DHT22;38441;52.894;6.040;2023-12-20T21:01:28;8.60;99.90
52531;DHT22;38441;52.894;6.040;2023-12-20T21:03:57;8.60;99.90
52531;DHT22;38441;52.894;6.040;2023-12-20T21:06:22;8.60;99.90
52531;DHT22;38441;52.894;6.040;2023-12-20T21:08:48;8.70;99.90
52531;DHT22;38441;52.894;6.040;2023-12-20T21:11:14;8.60;99.90
52531;DHT22;38441;52.894;6.040;2023-12-20T21:13:43;8.70;99.90
52531;DHT22;38441;52.894;6.040;2023-12-20T21:16:13;8.60;99.90
52531;DHT22;38441;52.894;6.040;2023-12-20T21:18:39;8.70;99.90
52531;DHT22;38441;52.894;6.040;2023-12-20T21:21:05;8.60;99.90
52531;DHT22;38441;52.894;6.040;2023-12-20T21:23:32;8.60;99.90
52531;DHT22;38441;52.894;6.040;2023-12-20T21:25:58;8.80;99.90
52531;DHT22;38441;52.894;6.040;2023-12-20T21:28:24;8.90;99.90
52531;DHT22;38441;52.894;6.040;2023-12-20T21:30:49;8.70;99.90
52531;DHT22;38441;52.894;6.040;2023-12-20T21:33:15;8.60;99.90
52531;DHT22;38441;52.894;6.040;2023-12-20T21:35:41;8.90;99.90
52531;DHT22;38441;52.894;6.040;2023-12-20T21:38:06;8.70;99.90
52531;DHT22;38441;52.894;6.040;2023-12-20T21:40:32;9.00;99.90
52531;DHT22;38441;52.894;6.040;2023-12-20T21:42:58;8.80;99.90
52531;DHT22;38441;52.894;6.040;2023-12-20T21:45:24;8.90;99.90
52531;DHT22;38441;52.894;6.040;2023-12-20T21:47:49;8.70;99.90
52531;DHT22;38441;52.894;6.040;2023-12-20T21:50:17;8.90;99.90
52531;DHT22;38441;52.894;6.040;2023-12-20T21:52:42;8.80;99.90
52531;DHT22;38441;52.894;6.040;2023-12-20T21:55:08;8.80;99.90
52531;DHT22;38441;52.894;6.040;2023-12-20T21:57:33;8.80;99.90
52531;DHT22;38441;52.894;6.040;2023-12-20T22:00:00;8.90;99.90
52531;DHT22;38441;52.894;6.040;2023-12-20T22:02:26;8.80;99.90
52531;DHT22;38441;52.894;6.040;2023-12-20T22:04:51;8.80;99.90
52531;DHT22;38441;52.894;6.040;2023-12-20T22:07:17;8.90;99.90
52531;DHT22;38441;52.894;6.040;2023-12-20T22:09:44;8.90;99.90
52531;DHT22;38441;52.894;6.040;2023-12-20T22:12:10;8.90;99.90
52531;DHT22;38441;52.894;6.040;2023-12-20T22:14:35;8.80;99.90
52531;DHT22;38441;52.894;6.040;2023-12-20T22:17:01;8.80;99.90
52531;DHT22;38441;52.894;6.040;2023-12-20T22:19:27;8.90;99.90
52531;DHT22;38441;52.894;6.040;2023-12-20T22:21:53;8.90;99.90
52531;DHT22;38441;52.894;6.040;2023-12-20T22:24:19;9.00;99.90
52531;DHT22;38441;52.894;6.040;2023-12-20T22:26:44;9.00;99.90
52531;DHT22;38441;52.894;6.040;2023-12-20T22:29:10;8.90;99.90
52531;DHT22;38441;52.894;6.040;2023-12-20T22:31:36;8.80;99.90
52531;DHT22;38441;52.894;6.040;2023-12-20T22:34:01;8.90;99.90
52531;DHT22;38441;52.894;6.040;2023-12-20T22:36:27;9.00;99.90
52531;DHT22;38441;52.894;6.040;2023-12-20T22:38:53;8.90;99.90
52531;DHT22;38441;52.894;6.040;2023-12-20T22:41:19;9.00;99.90
52531;DHT22;38441;52.894;6.040;2023-12-20T22:43:44;8.90;99.90
52531;DHT22;38441;52.894;6.040;2023-12-20T22:46:10;9.00;99.90
52531;DHT22;38441;52.894;6.040;2023-12-20T22:48:35;9.00;99.90
52531;DHT22;38441;52.894;6.040;2023-12-20T22:51:01;8.90;99.90
52531;DHT22;38441;52.894;6.040;2023-12-20T22:53:28;9.00;99.90
52531;DHT22;38441;52.894;6.040;2023-12-20T22:55:53;9.00;99.90
52531;DHT22;38441;52.894;6.040;2023-12-20T22:58:19;9.10;99.90
52531;DHT22;38441;52.894;6.040;2023-12-20T23:00:44;9.00;99.90
52531;DHT22;38441;52.894;6.040;2023-12-20T23:03:10;9.00;99.90
52531;DHT22;38441;52.894;6.040;2023-12-20T23:05:36;9.00;99.90
52531;DHT22;38441;52.894;6.040;2023-12-20T23:08:01;9.00;99.90
52531;DHT22;38441;52.894;6.040;2023-12-20T23:10:28;8.90;99.90
52531;DHT22;38441;52.894;6.040;2023-12-20T23:12:58;9.00;99.90
52531;DHT22;38441;52.894;6.040;2023-12-20T23:15:24;9.00;99.90
52531;DHT22;38441;52.894;6.040;2023-12-20T23:17:50;9.10;99.90
52531;DHT22;38441;52.894;6.040;2023-12-20T23:20:16;9.10;99.90
52531;DHT22;38441;52.894;6.040;2023-12-20T23:22:42;9.00;99.90
52531;DHT22;38441;52.894;6.040;2023-12-20T23:25:08;9.00;99.90
52531;DHT22;38441;52.894;6.040;2023-12-20T23:27:33;9.10;99.90
52531;DHT22;38441;52.894;6.040;2023-12-20T23:29:59;9.10;99.90
52531;DHT22;38441;52.894;6.040;2023-12-20T23:32:25;9.10;99.90
52531;DHT22;38441;52.894;6.040;2023-12-20T23:34:51;9.20;99.90
52531;DHT22;38441;52.894;6.040;2023-12-20T23:37:16;9.00;99.90
52531;DHT22;38441;52.894;6.040;2023-12-20T23:39:42;9.00;99.90
52531;DHT22;38441;52.894;6.040;2023-12-20T23:42:08;9.10;99.90
52531;DHT22;38441;52.894;6.040;2023-12-20T23:44:34;9.10;99.90
52531;DHT22;38441;52.894;6.040;2023-12-20T23:49:26;9.10;99.90
52531;DHT22;38441;52.894;6.040;2023-12-20T23:51:52;9.20;99.90
52531;DHT22;38441;52.894;6.040;2023-12-20T23:54:17;9.10;99.90
52531;DHT22;38441;52.894;6.040;2023-12-20T23:56:43;9.10;99.90
52531;DHT22;38441;52.894;6.040;2023-12-20T23:59:09;9.10;99.90
